LZTT/TAT METAR and TAF weather

Enter ICAO airport designator
Station Type Date Time Source
LZTT METAR 2021/09/16 11:00 UTC NOAA

LZTT 161100Z 13005KT 100V160 9999 FEW060 22/14 Q1015 NOSIG


Station Type Date Time Source
LZTT Decoded METAR 2021/09/16 11:00 UTC NOAA

Poprad / Tatry, Slovakia (LZTT) 49-04N 020-15E 695M
Sep 16, 2021 - 07:00 AM EDT / 2021.09.16 1100 UTC
Wind: from the SE (130 degrees) at 6 MPH (5 KT) (direction variable):0
Visibility: greater than 7 mile(s):0
Sky conditions: mostly clear
Temperature: 71 F (22 C)
Dew Point: 57 F (14 C)
Relative Humidity: 60%
Pressure (altimeter): 29.97 in. Hg (1015 hPa)
ob: LZTT 161100Z 13005KT 100V160 9999 FEW060 22/14 Q1015 NOSIG
cycle: 11

Station Type Date Time Source
LZTT TAF 2021/09/16 12:59 UTC NOAA

TAF LZTT 161100Z 1612/1712 25005KT 9999 SCT040 PROB30
TEMPO 1614/1618 -SHRA FEW030TCU
TEMPO 1702/1712 SHRA FEW015 SCT030TCU BKN035

Example: see airport list